sensor_id;sensor_type;location;lat;lon;timestamp;P1;durP1;ratioP1;P2;durP2;ratioP2
42770;SDS011;28426;42.872;25.314;2022-11-18T00:02:09;13.93;;;6.25;;
42770;SDS011;28426;42.872;25.314;2022-11-18T00:04:40;10.40;;;5.57;;
42770;SDS011;28426;42.872;25.314;2022-11-18T00:07:11;13.52;;;6.05;;
42770;SDS011;28426;42.872;25.314;2022-11-18T00:09:42;10.77;;;5.57;;
42770;SDS011;28426;42.872;25.314;2022-11-18T00:12:12;11.80;;;5.43;;
42770;SDS011;28426;42.872;25.314;2022-11-18T00:14:55;9.45;;;6.00;;
42770;SDS011;28426;42.872;25.314;2022-11-18T00:17:30;9.48;;;5.53;;
42770;SDS011;28426;42.872;25.314;2022-11-18T00:20:01;8.98;;;5.45;;
42770;SDS011;28426;42.872;25.314;2022-11-18T00:22:32;9.63;;;5.65;;
42770;SDS011;28426;42.872;25.314;2022-11-18T00:25:02;9.68;;;5.10;;
42770;SDS011;28426;42.872;25.314;2022-11-18T00:27:33;8.80;;;5.53;;
42770;SDS011;28426;42.872;25.314;2022-11-18T00:30:04;11.68;;;5.22;;
42770;SDS011;28426;42.872;25.314;2022-11-18T00:32:39;8.07;;;5.05;;
42770;SDS011;28426;42.872;25.314;2022-11-18T00:35:09;9.43;;;5.22;;
42770;SDS011;28426;42.872;25.314;2022-11-18T00:37:40;9.52;;;5.35;;
42770;SDS011;28426;42.872;25.314;2022-11-18T00:40:11;7.38;;;4.65;;
42770;SDS011;28426;42.872;25.314;2022-11-18T00:42:42;10.95;;;5.53;;
42770;SDS011;28426;42.872;25.314;2022-11-18T00:45:18;11.23;;;6.38;;
42770;SDS011;28426;42.872;25.314;2022-11-18T00:47:52;10.05;;;6.47;;
42770;SDS011;28426;42.872;25.314;2022-11-18T00:50:23;11.00;;;5.93;;
42770;SDS011;28426;42.872;25.314;2022-11-18T00:52:53;9.20;;;5.60;;
42770;SDS011;28426;42.872;25.314;2022-11-18T00:55:24;9.70;;;5.53;;
42770;SDS011;28426;42.872;25.314;2022-11-18T00:57:55;10.13;;;5.78;;
42770;SDS011;28426;42.872;25.314;2022-11-18T01:00:25;9.70;;;5.40;;
42770;SDS011;28426;42.872;25.314;2022-11-18T01:02:59;10.80;;;6.30;;
42770;SDS011;28426;42.872;25.314;2022-11-18T01:05:29;8.85;;;4.90;;
42770;SDS011;28426;42.872;25.314;2022-11-18T01:08:00;9.07;;;5.13;;
42770;SDS011;28426;42.872;25.314;2022-11-18T01:10:30;9.05;;;4.53;;
42770;SDS011;28426;42.872;25.314;2022-11-18T01:13:01;10.40;;;5.15;;
42770;SDS011;28426;42.872;25.314;2022-11-18T01:15:45;13.80;;;5.63;;
42770;SDS011;28426;42.872;25.314;2022-11-18T01:18:22;9.52;;;4.47;;
42770;SDS011;28426;42.872;25.314;2022-11-18T01:20:55;12.63;;;6.40;;
42770;SDS011;28426;42.872;25.314;2022-11-18T01:23:29;10.82;;;6.25;;
42770;SDS011;28426;42.872;25.314;2022-11-18T01:26:02;6.57;;;4.28;;
42770;SDS011;28426;42.872;25.314;2022-11-18T01:28:34;9.23;;;4.10;;
42770;SDS011;28426;42.872;25.314;2022-11-18T01:31:05;7.32;;;3.88;;
42770;SDS011;28426;42.872;25.314;2022-11-18T01:33:40;8.85;;;3.63;;
42770;SDS011;28426;42.872;25.314;2022-11-18T01:36:14;7.72;;;3.90;;
42770;SDS011;28426;42.872;25.314;2022-11-18T01:38:46;12.23;;;6.40;;
42770;SDS011;28426;42.872;25.314;2022-11-18T01:41:18;8.73;;;5.28;;
42770;SDS011;28426;42.872;25.314;2022-11-18T01:43:50;10.20;;;5.63;;
42770;SDS011;28426;42.872;25.314;2022-11-18T01:46:23;13.88;;;5.82;;
42770;SDS011;28426;42.872;25.314;2022-11-18T01:48:58;9.60;;;4.30;;
42770;SDS011;28426;42.872;25.314;2022-11-18T01:51:32;7.75;;;3.70;;
42770;SDS011;28426;42.872;25.314;2022-11-18T01:54:07;7.75;;;4.20;;
42770;SDS011;28426;42.872;25.314;2022-11-18T01:56:43;9.35;;;5.05;;
42770;SDS011;28426;42.872;25.314;2022-11-18T01:59:22;9.88;;;4.88;;
42770;SDS011;28426;42.872;25.314;2022-11-18T02:01:56;9.77;;;5.55;;
42770;SDS011;28426;42.872;25.314;2022-11-18T02:04:31;13.90;;;5.90;;
42770;SDS011;28426;42.872;25.314;2022-11-18T02:07:02;11.35;;;6.50;;
42770;SDS011;28426;42.872;25.314;2022-11-18T02:09:34;11.57;;;6.30;;
42770;SDS011;28426;42.872;25.314;2022-11-18T02:12:06;12.13;;;6.30;;
42770;SDS011;28426;42.872;25.314;2022-11-18T02:14:38;10.35;;;6.60;;
42770;SDS011;28426;42.872;25.314;2022-11-18T02:17:13;16.63;;;8.93;;
42770;SDS011;28426;42.872;25.314;2022-11-18T02:26:22;15.18;;;7.30;;
42770;SDS011;28426;42.872;25.314;2022-11-18T02:29:17;9.82;;;6.63;;
42770;SDS011;28426;42.872;25.314;2022-11-18T02:31:54;11.02;;;5.28;;
42770;SDS011;28426;42.872;25.314;2022-11-18T02:34:32;10.10;;;5.07;;
42770;SDS011;28426;42.872;25.314;2022-11-18T02:37:11;9.82;;;4.97;;
42770;SDS011;28426;42.872;25.314;2022-11-18T02:39:47;10.00;;;4.50;;
42770;SDS011;28426;42.872;25.314;2022-11-18T02:42:23;6.93;;;3.90;;
42770;SDS011;28426;42.872;25.314;2022-11-18T02:45:01;5.00;;;3.15;;
42770;SDS011;28426;42.872;25.314;2022-11-18T02:47:35;8.00;;;4.90;;
42770;SDS011;28426;42.872;25.314;2022-11-18T02:50:07;10.93;;;4.68;;
42770;SDS011;28426;42.872;25.314;2022-11-18T02:52:43;9.88;;;4.53;;
42770;SDS011;28426;42.872;25.314;2022-11-18T02:55:15;9.38;;;5.10;;
42770;SDS011;28426;42.872;25.314;2022-11-18T02:57:47;15.13;;;5.13;;
42770;SDS011;28426;42.872;25.314;2022-11-18T03:00:21;14.95;;;5.75;;
42770;SDS011;28426;42.872;25.314;2022-11-18T03:02:51;11.63;;;5.53;;
42770;SDS011;28426;42.872;25.314;2022-11-18T03:05:24;12.43;;;6.78;;
42770;SDS011;28426;42.872;25.314;2022-11-18T03:08:04;10.93;;;6.65;;
42770;SDS011;28426;42.872;25.314;2022-11-18T03:10:39;12.55;;;5.55;;
42770;SDS011;28426;42.872;25.314;2022-11-18T03:13:19;8.80;;;5.72;;
42770;SDS011;28426;42.872;25.314;2022-11-18T03:16:00;11.35;;;5.47;;
42770;SDS011;28426;42.872;25.314;2022-11-18T03:18:35;9.40;;;4.50;;
42770;SDS011;28426;42.872;25.314;2022-11-18T03:21:13;10.30;;;4.43;;
42770;SDS011;28426;42.872;25.314;2022-11-18T03:23:50;6.53;;;3.80;;
42770;SDS011;28426;42.872;25.314;2022-11-18T03:26:28;12.75;;;4.75;;
42770;SDS011;28426;42.872;25.314;2022-11-18T03:29:01;8.25;;;4.50;;
42770;SDS011;28426;42.872;25.314;2022-11-18T03:31:39;8.35;;;4.30;;
42770;SDS011;28426;42.872;25.314;2022-11-18T03:34:13;10.63;;;5.00;;
42770;SDS011;28426;42.872;25.314;2022-11-18T03:36:50;8.07;;;4.90;;
42770;SDS011;28426;42.872;25.314;2022-11-18T03:39:27;7.43;;;4.93;;
42770;SDS011;28426;42.872;25.314;2022-11-18T03:42:02;13.25;;;4.97;;
42770;SDS011;28426;42.872;25.314;2022-11-18T03:44:38;8.38;;;5.20;;
42770;SDS011;28426;42.872;25.314;2022-11-18T03:47:21;9.48;;;5.28;;
42770;SDS011;28426;42.872;25.314;2022-11-18T03:49:58;14.88;;;4.93;;
42770;SDS011;28426;42.872;25.314;2022-11-18T03:52:33;11.15;;;4.50;;
42770;SDS011;28426;42.872;25.314;2022-11-18T03:55:08;9.60;;;4.38;;
42770;SDS011;28426;42.872;25.314;2022-11-18T03:57:43;8.20;;;4.10;;
42770;SDS011;28426;42.872;25.314;2022-11-18T04:00:19;9.30;;;4.88;;
42770;SDS011;28426;42.872;25.314;2022-11-18T04:02:52;7.22;;;4.15;;
42770;SDS011;28426;42.872;25.314;2022-11-18T04:05:23;8.52;;;4.57;;
42770;SDS011;28426;42.872;25.314;2022-11-18T04:07:54;8.57;;;4.10;;
42770;SDS011;28426;42.872;25.314;2022-11-18T04:10:28;11.10;;;3.90;;
42770;SDS011;28426;42.872;25.314;2022-11-18T04:13:04;12.25;;;7.03;;
42770;SDS011;28426;42.872;25.314;2022-11-18T04:15:38;7.43;;;4.72;;
42770;SDS011;28426;42.872;25.314;2022-11-18T04:18:13;7.82;;;4.95;;
42770;SDS011;28426;42.872;25.314;2022-11-18T04:20:44;10.32;;;5.22;;
42770;SDS011;28426;42.872;25.314;2022-11-18T04:23:14;10.60;;;4.90;;
42770;SDS011;28426;42.872;25.314;2022-11-18T04:25:45;10.00;;;4.95;;
42770;SDS011;28426;42.872;25.314;2022-11-18T04:28:15;10.25;;;4.55;;
42770;SDS011;28426;42.872;25.314;2022-11-18T04:30:46;9.70;;;5.20;;
42770;SDS011;28426;42.872;25.314;2022-11-18T04:33:19;8.63;;;5.25;;
42770;SDS011;28426;42.872;25.314;2022-11-18T04:35:50;8.93;;;5.10;;
42770;SDS011;28426;42.872;25.314;2022-11-18T04:38:20;11.05;;;5.95;;
42770;SDS011;28426;42.872;25.314;2022-11-18T04:40:51;16.95;;;8.63;;
42770;SDS011;28426;42.872;25.314;2022-11-18T04:43:21;12.32;;;7.10;;
42770;SDS011;28426;42.872;25.314;2022-11-18T04:45:52;18.92;;;6.82;;
42770;SDS011;28426;42.872;25.314;2022-11-18T04:48:25;11.88;;;5.97;;
42770;SDS011;28426;42.872;25.314;2022-11-18T04:50:56;10.60;;;5.43;;
42770;SDS011;28426;42.872;25.314;2022-11-18T04:53:26;9.07;;;6.00;;
42770;SDS011;28426;42.872;25.314;2022-11-18T04:56:02;11.45;;;5.60;;
42770;SDS011;28426;42.872;25.314;2022-11-18T04:58:34;13.07;;;7.03;;
42770;SDS011;28426;42.872;25.314;2022-11-18T05:01:04;15.88;;;11.68;;
42770;SDS011;28426;42.872;25.314;2022-11-18T05:03:38;14.05;;;9.05;;
42770;SDS011;28426;42.872;25.314;2022-11-18T05:06:16;14.48;;;9.02;;
42770;SDS011;28426;42.872;25.314;2022-11-18T05:08:46;16.30;;;7.57;;
42770;SDS011;28426;42.872;25.314;2022-11-18T05:11:18;13.82;;;8.27;;
42770;SDS011;28426;42.872;25.314;2022-11-18T05:14:01;21.83;;;11.55;;
42770;SDS011;28426;42.872;25.314;2022-11-18T05:16:31;13.63;;;7.68;;
42770;SDS011;28426;42.872;25.314;2022-11-18T05:19:05;18.13;;;6.88;;
42770;SDS011;28426;42.872;25.314;2022-11-18T05:21:36;11.75;;;6.80;;
42770;SDS011;28426;42.872;25.314;2022-11-18T05:24:07;14.40;;;7.60;;
42770;SDS011;28426;42.872;25.314;2022-11-18T05:26:37;16.92;;;9.15;;
42770;SDS011;28426;42.872;25.314;2022-11-18T05:29:08;18.95;;;11.57;;
42770;SDS011;28426;42.872;25.314;2022-11-18T05:31:39;23.35;;;12.70;;
42770;SDS011;28426;42.872;25.314;2022-11-18T05:34:12;20.25;;;12.63;;
42770;SDS011;28426;42.872;25.314;2022-11-18T05:36:43;27.75;;;12.82;;
42770;SDS011;28426;42.872;25.314;2022-11-18T05:39:14;36.03;;;20.00;;
42770;SDS011;28426;42.872;25.314;2022-11-18T05:41:45;36.35;;;18.40;;
42770;SDS011;28426;42.872;25.314;2022-11-18T05:44:28;33.88;;;16.33;;
42770;SDS011;28426;42.872;25.314;2022-11-18T05:46:59;48.38;;;23.33;;
42770;SDS011;28426;42.872;25.314;2022-11-18T05:49:32;39.88;;;20.90;;
42770;SDS011;28426;42.872;25.314;2022-11-18T05:52:02;31.33;;;17.00;;
42770;SDS011;28426;42.872;25.314;2022-11-18T05:54:33;32.20;;;16.30;;
42770;SDS011;28426;42.872;25.314;2022-11-18T05:57:03;30.13;;;15.63;;
42770;SDS011;28426;42.872;25.314;2022-11-18T05:59:34;32.30;;;16.40;;
42770;SDS011;28426;42.872;25.314;2022-11-18T06:02:05;23.70;;;12.88;;
42770;SDS011;28426;42.872;25.314;2022-11-18T06:04:44;30.38;;;17.95;;
42770;SDS011;28426;42.872;25.314;2022-11-18T06:07:18;32.70;;;17.92;;
42770;SDS011;28426;42.872;25.314;2022-11-18T06:09:52;26.98;;;15.57;;
42770;SDS011;28426;42.872;25.314;2022-11-18T06:12:34;22.77;;;11.98;;
42770;SDS011;28426;42.872;25.314;2022-11-18T06:15:08;31.17;;;16.65;;
42770;SDS011;28426;42.872;25.314;2022-11-18T06:17:43;44.53;;;20.73;;
42770;SDS011;28426;42.872;25.314;2022-11-18T06:20:19;40.08;;;20.20;;
42770;SDS011;28426;42.872;25.314;2022-11-18T06:22:52;41.80;;;21.13;;
42770;SDS011;28426;42.872;25.314;2022-11-18T06:25:24;46.65;;;22.38;;
42770;SDS011;28426;42.872;25.314;2022-11-18T06:27:56;41.35;;;21.90;;
42770;SDS011;28426;42.872;25.314;2022-11-18T06:30:29;38.35;;;18.40;;
42770;SDS011;28426;42.872;25.314;2022-11-18T06:33:00;35.45;;;19.67;;
42770;SDS011;28426;42.872;25.314;2022-11-18T06:35:33;28.92;;;16.60;;
42770;SDS011;28426;42.872;25.314;2022-11-18T06:38:04;23.25;;;14.13;;
42770;SDS011;28426;42.872;25.314;2022-11-18T06:40:34;18.33;;;11.60;;
42770;SDS011;28426;42.872;25.314;2022-11-18T06:43:05;23.30;;;13.40;;
42770;SDS011;28426;42.872;25.314;2022-11-18T06:45:48;43.75;;;21.27;;
42770;SDS011;28426;42.872;25.314;2022-11-18T06:48:35;30.40;;;19.77;;
42770;SDS011;28426;42.872;25.314;2022-11-18T06:51:08;22.60;;;13.05;;
42770;SDS011;28426;42.872;25.314;2022-11-18T06:53:39;26.55;;;12.65;;
42770;SDS011;28426;42.872;25.314;2022-11-18T06:56:10;21.73;;;10.73;;
42770;SDS011;28426;42.872;25.314;2022-11-18T06:58:42;20.80;;;11.48;;
42770;SDS011;28426;42.872;25.314;2022-11-18T07:01:13;19.65;;;9.13;;
42770;SDS011;28426;42.872;25.314;2022-11-18T07:03:46;21.85;;;10.13;;
42770;SDS011;28426;42.872;25.314;2022-11-18T07:06:20;20.98;;;11.63;;
42770;SDS011;28426;42.872;25.314;2022-11-18T07:08:53;36.97;;;18.27;;
42770;SDS011;28426;42.872;25.314;2022-11-18T07:11:24;31.52;;;17.85;;
42770;SDS011;28426;42.872;25.314;2022-11-18T07:13:55;33.22;;;18.13;;
42770;SDS011;28426;42.872;25.314;2022-11-18T07:16:26;30.85;;;16.27;;
42770;SDS011;28426;42.872;25.314;2022-11-18T07:18:57;17.23;;;9.57;;
42770;SDS011;28426;42.872;25.314;2022-11-18T07:21:30;14.73;;;8.80;;
42770;SDS011;28426;42.872;25.314;2022-11-18T07:24:03;32.67;;;16.98;;
42770;SDS011;28426;42.872;25.314;2022-11-18T07:26:35;19.95;;;10.70;;
42770;SDS011;28426;42.872;25.314;2022-11-18T07:29:05;21.27;;;12.45;;
42770;SDS011;28426;42.872;25.314;2022-11-18T07:31:36;20.73;;;10.63;;
42770;SDS011;28426;42.872;25.314;2022-11-18T07:34:07;13.75;;;6.70;;
42770;SDS011;28426;42.872;25.314;2022-11-18T07:36:40;10.38;;;6.15;;
42770;SDS011;28426;42.872;25.314;2022-11-18T07:39:11;12.68;;;6.90;;
42770;SDS011;28426;42.872;25.314;2022-11-18T07:41:42;17.50;;;6.88;;
42770;SDS011;28426;42.872;25.314;2022-11-18T07:44:12;12.57;;;6.53;;
42770;SDS011;28426;42.872;25.314;2022-11-18T07:46:43;19.60;;;10.23;;
42770;SDS011;28426;42.872;25.314;2022-11-18T07:49:14;19.67;;;11.77;;
42770;SDS011;28426;42.872;25.314;2022-11-18T07:51:48;25.40;;;13.70;;
42770;SDS011;28426;42.872;25.314;2022-11-18T07:54:18;31.45;;;13.25;;
42770;SDS011;28426;42.872;25.314;2022-11-18T07:56:49;29.25;;;14.73;;
42770;SDS011;28426;42.872;25.314;2022-11-18T07:59:19;22.10;;;13.65;;
42770;SDS011;28426;42.872;25.314;2022-11-18T08:01:50;21.20;;;11.85;;
42770;SDS011;28426;42.872;25.314;2022-11-18T08:04:20;16.52;;;10.98;;
42770;SDS011;28426;42.872;25.314;2022-11-18T08:06:54;20.83;;;10.45;;
42770;SDS011;28426;42.872;25.314;2022-11-18T08:09:24;22.15;;;11.18;;
42770;SDS011;28426;42.872;25.314;2022-11-18T08:11:55;26.27;;;14.13;;
42770;SDS011;28426;42.872;25.314;2022-11-18T08:14:25;39.05;;;14.25;;
42770;SDS011;28426;42.872;25.314;2022-11-18T08:16:56;28.98;;;13.90;;
42770;SDS011;28426;42.872;25.314;2022-11-18T08:19:27;31.05;;;17.08;;
42770;SDS011;28426;42.872;25.314;2022-11-18T08:22:00;18.83;;;9.20;;
42770;SDS011;28426;42.872;25.314;2022-11-18T08:24:30;13.52;;;7.00;;
42770;SDS011;28426;42.872;25.314;2022-11-18T08:27:01;14.55;;;6.45;;
42770;SDS011;28426;42.872;25.314;2022-11-18T08:29:32;11.25;;;6.10;;
42770;SDS011;28426;42.872;25.314;2022-11-18T08:32:02;15.40;;;7.05;;
42770;SDS011;28426;42.872;25.314;2022-11-18T08:34:34;38.72;;;19.17;;
42770;SDS011;28426;42.872;25.314;2022-11-18T08:37:07;31.63;;;18.73;;
42770;SDS011;28426;42.872;25.314;2022-11-18T08:39:38;35.92;;;22.52;;
42770;SDS011;28426;42.872;25.314;2022-11-18T08:42:08;30.30;;;20.58;;
42770;SDS011;28426;42.872;25.314;2022-11-18T08:44:39;39.33;;;30.38;;
42770;SDS011;28426;42.872;25.314;2022-11-18T08:47:10;22.48;;;15.63;;
42770;SDS011;28426;42.872;25.314;2022-11-18T08:49:40;24.63;;;11.57;;
42770;SDS011;28426;42.872;25.314;2022-11-18T08:52:13;18.30;;;10.00;;
42770;SDS011;28426;42.872;25.314;2022-11-18T08:54:44;16.83;;;8.70;;
42770;SDS011;28426;42.872;25.314;2022-11-18T08:57:15;22.95;;;11.45;;
42770;SDS011;28426;42.872;25.314;2022-11-18T08:59:45;21.10;;;10.20;;
42770;SDS011;28426;42.872;25.314;2022-11-18T09:02:16;21.25;;;10.05;;
42770;SDS011;28426;42.872;25.314;2022-11-18T09:04:48;23.77;;;11.00;;
42770;SDS011;28426;42.872;25.314;2022-11-18T09:07:22;25.05;;;10.65;;
42770;SDS011;28426;42.872;25.314;2022-11-18T09:09:53;24.95;;;10.38;;
42770;SDS011;28426;42.872;25.314;2022-11-18T09:12:24;20.80;;;10.45;;
42770;SDS011;28426;42.872;25.314;2022-11-18T09:14:54;20.02;;;11.20;;
42770;SDS011;28426;42.872;25.314;2022-11-18T09:17:40;38.63;;;10.35;;
42770;SDS011;28426;42.872;25.314;2022-11-18T09:20:10;20.38;;;10.77;;
42770;SDS011;28426;42.872;25.314;2022-11-18T09:22:43;17.35;;;8.85;;
42770;SDS011;28426;42.872;25.314;2022-11-18T09:25:14;29.55;;;11.82;;
42770;SDS011;28426;42.872;25.314;2022-11-18T09:27:45;27.75;;;11.38;;
42770;SDS011;28426;42.872;25.314;2022-11-18T09:30:18;20.80;;;8.88;;
42770;SDS011;28426;42.872;25.314;2022-11-18T09:32:49;22.55;;;7.85;;
42770;SDS011;28426;42.872;25.314;2022-11-18T09:35:20;18.65;;;6.72;;
42770;SDS011;28426;42.872;25.314;2022-11-18T09:37:53;12.88;;;4.97;;
42770;SDS011;28426;42.872;25.314;2022-11-18T09:40:23;13.27;;;3.78;;
42770;SDS011;28426;42.872;25.314;2022-11-18T09:42:55;15.95;;;5.47;;
42770;SDS011;28426;42.872;25.314;2022-11-18T09:45:36;5.13;;;2.50;;
42770;SDS011;28426;42.872;25.314;2022-11-18T09:48:12;5.13;;;2.33;;
42770;SDS011;28426;42.872;25.314;2022-11-18T09:50:46;13.48;;;5.97;;
42770;SDS011;28426;42.872;25.314;2022-11-18T09:53:20;10.48;;;5.68;;
42770;SDS011;28426;42.872;25.314;2022-11-18T09:55:54;8.05;;;3.03;;
42770;SDS011;28426;42.872;25.314;2022-11-18T09:58:26;3.40;;;1.40;;
42770;SDS011;28426;42.872;25.314;2022-11-18T10:01:02;3.38;;;1.50;;
42770;SDS011;28426;42.872;25.314;2022-11-18T10:03:39;4.55;;;1.70;;
42770;SDS011;28426;42.872;25.314;2022-11-18T10:06:12;7.07;;;3.13;;
42770;SDS011;28426;42.872;25.314;2022-11-18T10:08:57;4.90;;;1.67;;
42770;SDS011;28426;42.872;25.314;2022-11-18T10:11:34;9.35;;;1.80;;
42770;SDS011;28426;42.872;25.314;2022-11-18T10:14:20;4.57;;;2.10;;
42770;SDS011;28426;42.872;25.314;2022-11-18T10:16:59;5.75;;;2.08;;
42770;SDS011;28426;42.872;25.314;2022-11-18T10:19:41;3.17;;;1.50;;
42770;SDS011;28426;42.872;25.314;2022-11-18T10:22:20;5.93;;;1.70;;
42770;SDS011;28426;42.872;25.314;2022-11-18T10:24:57;3.78;;;1.30;;
42770;SDS011;28426;42.872;25.314;2022-11-18T10:27:33;5.17;;;2.20;;
42770;SDS011;28426;42.872;25.314;2022-11-18T10:30:11;4.88;;;1.55;;
42770;SDS011;28426;42.872;25.314;2022-11-18T10:32:53;4.05;;;1.60;;
42770;SDS011;28426;42.872;25.314;2022-11-18T10:35:29;3.90;;;1.67;;
42770;SDS011;28426;42.872;25.314;2022-11-18T10:38:03;5.07;;;1.55;;
42770;SDS011;28426;42.872;25.314;2022-11-18T10:40:39;4.97;;;1.55;;
42770;SDS011;28426;42.872;25.314;2022-11-18T10:43:14;5.50;;;1.80;;
42770;SDS011;28426;42.872;25.314;2022-11-18T10:46:22;7.82;;;2.00;;
42770;SDS011;28426;42.872;25.314;2022-11-18T10:51:45;3.53;;;1.42;;
42770;SDS011;28426;42.872;25.314;2022-11-18T10:54:17;3.95;;;1.45;;
42770;SDS011;28426;42.872;25.314;2022-11-18T10:56:53;4.47;;;1.30;;
42770;SDS011;28426;42.872;25.314;2022-11-18T10:59:27;3.47;;;1.48;;
42770;SDS011;28426;42.872;25.314;2022-11-18T11:02:01;4.10;;;1.45;;
42770;SDS011;28426;42.872;25.314;2022-11-18T11:04:41;4.40;;;1.30;;
42770;SDS011;28426;42.872;25.314;2022-11-18T11:07:16;4.75;;;1.50;;
42770;SDS011;28426;42.872;25.314;2022-11-18T11:09:58;5.95;;;1.48;;
42770;SDS011;28426;42.872;25.314;2022-11-18T11:12:33;3.97;;;1.40;;
42770;SDS011;28426;42.872;25.314;2022-11-18T11:15:08;6.70;;;2.40;;
42770;SDS011;28426;42.872;25.314;2022-11-18T11:17:44;5.47;;;1.60;;
42770;SDS011;28426;42.872;25.314;2022-11-18T11:20:41;4.95;;;1.55;;
42770;SDS011;28426;42.872;25.314;2022-11-18T11:23:13;6.18;;;1.55;;
42770;SDS011;28426;42.872;25.314;2022-11-18T11:25:50;3.95;;;1.63;;
42770;SDS011;28426;42.872;25.314;2022-11-18T11:28:54;4.85;;;1.80;;
42770;SDS011;28426;42.872;25.314;2022-11-18T11:31:34;7.28;;;1.60;;
42770;SDS011;28426;42.872;25.314;2022-11-18T11:34:16;4.25;;;1.67;;
42770;SDS011;28426;42.872;25.314;2022-11-18T11:36:53;6.18;;;1.77;;
42770;SDS011;28426;42.872;25.314;2022-11-18T11:39:37;4.05;;;1.50;;
42770;SDS011;28426;42.872;25.314;2022-11-18T11:42:35;4.55;;;1.80;;
42770;SDS011;28426;42.872;25.314;2022-11-18T11:45:22;4.10;;;1.87;;
42770;SDS011;28426;42.872;25.314;2022-11-18T11:48:03;5.95;;;3.17;;
42770;SDS011;28426;42.872;25.314;2022-11-18T11:50:44;6.20;;;2.00;;
42770;SDS011;28426;42.872;25.314;2022-11-18T11:53:50;5.35;;;2.17;;
42770;SDS011;28426;42.872;25.314;2022-11-18T11:56:31;14.20;;;2.20;;
42770;SDS011;28426;42.872;25.314;2022-11-18T12:02:02;4.53;;;1.70;;
42770;SDS011;28426;42.872;25.314;2022-11-18T12:04:48;3.38;;;1.60;;
42770;SDS011;28426;42.872;25.314;2022-11-18T12:07:21;5.15;;;1.95;;
42770;SDS011;28426;42.872;25.314;2022-11-18T12:10:07;4.07;;;1.75;;
42770;SDS011;28426;42.872;25.314;2022-11-18T12:12:51;7.18;;;2.22;;
42770;SDS011;28426;42.872;25.314;2022-11-18T12:15:38;6.05;;;2.20;;
42770;SDS011;28426;42.872;25.314;2022-11-18T12:18:31;5.25;;;1.92;;
42770;SDS011;28426;42.872;25.314;2022-11-18T12:21:07;5.57;;;2.28;;
42770;SDS011;28426;42.872;25.314;2022-11-18T12:27:12;7.13;;;2.80;;
42770;SDS011;28426;42.872;25.314;2022-11-18T12:29:52;6.55;;;2.30;;
42770;SDS011;28426;42.872;25.314;2022-11-18T12:32:28;5.93;;;2.75;;
42770;SDS011;28426;42.872;25.314;2022-11-18T12:35:09;5.47;;;2.30;;
42770;SDS011;28426;42.872;25.314;2022-11-18T12:37:57;4.75;;;2.08;;
42770;SDS011;28426;42.872;25.314;2022-11-18T12:40:34;6.05;;;2.60;;
42770;SDS011;28426;42.872;25.314;2022-11-18T12:55:23;4.80;;;2.58;;
42770;SDS011;28426;42.872;25.314;2022-11-18T12:57:59;8.27;;;2.90;;
42770;SDS011;28426;42.872;25.314;2022-11-18T13:00:31;5.60;;;2.63;;
42770;SDS011;28426;42.872;25.314;2022-11-18T13:03:24;7.82;;;3.25;;
42770;SDS011;28426;42.872;25.314;2022-11-18T13:06:02;9.00;;;3.38;;
42770;SDS011;28426;42.872;25.314;2022-11-18T13:08:44;5.95;;;3.38;;
42770;SDS011;28426;42.872;25.314;2022-11-18T13:11:20;9.95;;;3.58;;
42770;SDS011;28426;42.872;25.314;2022-11-18T13:14:04;8.00;;;3.80;;
42770;SDS011;28426;42.872;25.314;2022-11-18T13:16:48;7.53;;;3.83;;
42770;SDS011;28426;42.872;25.314;2022-11-18T13:19:31;10.20;;;4.65;;
42770;SDS011;28426;42.872;25.314;2022-11-18T13:22:02;7.10;;;4.15;;
42770;SDS011;28426;42.872;25.314;2022-11-18T13:24:48;6.68;;;3.70;;
42770;SDS011;28426;42.872;25.314;2022-11-18T13:27:23;8.15;;;4.78;;
42770;SDS011;28426;42.872;25.314;2022-11-18T13:30:01;9.93;;;4.47;;
42770;SDS011;28426;42.872;25.314;2022-11-18T13:32:34;9.77;;;4.57;;
42770;SDS011;28426;42.872;25.314;2022-11-18T13:35:09;10.73;;;4.50;;
42770;SDS011;28426;42.872;25.314;2022-11-18T13:37:49;9.52;;;4.82;;
42770;SDS011;28426;42.872;25.314;2022-11-18T13:40:25;7.00;;;3.85;;
42770;SDS011;28426;42.872;25.314;2022-11-18T13:42:57;8.60;;;3.55;;
42770;SDS011;28426;42.872;25.314;2022-11-18T13:45:28;8.25;;;4.43;;
42770;SDS011;28426;42.872;25.314;2022-11-18T13:47:59;10.77;;;4.10;;
42770;SDS011;28426;42.872;25.314;2022-11-18T13:50:35;7.72;;;3.58;;
42770;SDS011;28426;42.872;25.314;2022-11-18T13:53:13;6.93;;;4.05;;
42770;SDS011;28426;42.872;25.314;2022-11-18T13:55:56;6.85;;;3.20;;
42770;SDS011;28426;42.872;25.314;2022-11-18T13:58:35;6.28;;;3.65;;
42770;SDS011;28426;42.872;25.314;2022-11-18T14:01:28;8.75;;;3.80;;
42770;SDS011;28426;42.872;25.314;2022-11-18T14:04:00;9.02;;;3.83;;
42770;SDS011;28426;42.872;25.314;2022-11-18T14:06:33;8.73;;;3.67;;
42770;SDS011;28426;42.872;25.314;2022-11-18T14:09:06;6.05;;;3.67;;
42770;SDS011;28426;42.872;25.314;2022-11-18T14:11:59;7.50;;;4.22;;
42770;SDS011;28426;42.872;25.314;2022-11-18T14:14:32;8.18;;;4.28;;
42770;SDS011;28426;42.872;25.314;2022-11-18T14:17:14;7.82;;;4.10;;
42770;SDS011;28426;42.872;25.314;2022-11-18T14:19:47;6.28;;;3.90;;
42770;SDS011;28426;42.872;25.314;2022-11-18T14:22:20;9.15;;;3.75;;
42770;SDS011;28426;42.872;25.314;2022-11-18T14:24:53;6.90;;;3.70;;
42770;SDS011;28426;42.872;25.314;2022-11-18T14:27:38;6.03;;;3.95;;
42770;SDS011;28426;42.872;25.314;2022-11-18T14:30:29;7.43;;;3.97;;
42770;SDS011;28426;42.872;25.314;2022-11-18T14:33:07;7.55;;;3.90;;
42770;SDS011;28426;42.872;25.314;2022-11-18T14:35:43;6.20;;;3.90;;
42770;SDS011;28426;42.872;25.314;2022-11-18T14:38:18;5.47;;;3.70;;
42770;SDS011;28426;42.872;25.314;2022-11-18T14:41:11;10.00;;;4.32;;
42770;SDS011;28426;42.872;25.314;2022-11-18T14:44:12;7.68;;;3.85;;
42770;SDS011;28426;42.872;25.314;2022-11-18T14:46:43;9.88;;;4.30;;
42770;SDS011;28426;42.872;25.314;2022-11-18T14:49:19;7.72;;;4.35;;
42770;SDS011;28426;42.872;25.314;2022-11-18T14:51:52;9.05;;;3.88;;
42770;SDS011;28426;42.872;25.314;2022-11-18T14:54:24;8.93;;;4.63;;
42770;SDS011;28426;42.872;25.314;2022-11-18T14:56:56;9.05;;;5.28;;
42770;SDS011;28426;42.872;25.314;2022-11-18T14:59:31;8.32;;;4.88;;
42770;SDS011;28426;42.872;25.314;2022-11-18T15:02:02;8.82;;;4.45;;
42770;SDS011;28426;42.872;25.314;2022-11-18T15:04:33;7.55;;;3.70;;
42770;SDS011;28426;42.872;25.314;2022-11-18T15:07:03;10.32;;;3.80;;
42770;SDS011;28426;42.872;25.314;2022-11-18T15:09:34;15.48;;;7.07;;
42770;SDS011;28426;42.872;25.314;2022-11-18T15:12:04;12.95;;;5.75;;
42770;SDS011;28426;42.872;25.314;2022-11-18T15:14:38;16.90;;;9.65;;
42770;SDS011;28426;42.872;25.314;2022-11-18T15:17:09;9.75;;;5.60;;
42770;SDS011;28426;42.872;25.314;2022-11-18T15:19:41;7.72;;;3.88;;
42770;SDS011;28426;42.872;25.314;2022-11-18T15:22:12;11.27;;;5.90;;
42770;SDS011;28426;42.872;25.314;2022-11-18T15:24:42;9.48;;;5.47;;
42770;SDS011;28426;42.872;25.314;2022-11-18T15:27:13;11.43;;;5.43;;
42770;SDS011;28426;42.872;25.314;2022-11-18T15:29:46;8.80;;;5.70;;
42770;SDS011;28426;42.872;25.314;2022-11-18T15:32:21;9.70;;;5.00;;
42770;SDS011;28426;42.872;25.314;2022-11-18T15:34:51;11.82;;;5.53;;
42770;SDS011;28426;42.872;25.314;2022-11-18T15:37:22;11.13;;;6.43;;